createdAt,value
2022-07-25T00:00:58.827Z,24.40
2022-07-25T00:03:28.463Z,24.30
2022-07-25T00:05:55.551Z,24.30
2022-07-25T00:08:22.507Z,24.20
2022-07-25T00:10:49.449Z,24.20
2022-07-25T00:13:16.376Z,24.20
2022-07-25T00:15:43.442Z,24.30
2022-07-25T00:18:10.524Z,24.20
2022-07-25T00:20:37.459Z,24.20
2022-07-25T00:23:04.400Z,24.20
2022-07-25T00:25:31.376Z,24.10
2022-07-25T00:27:58.284Z,24.00
2022-07-25T00:30:25.228Z,24.00
2022-07-25T00:32:52.645Z,24.00
2022-07-25T00:35:19.682Z,24.00
2022-07-25T00:37:46.690Z,24.00
2022-07-25T00:40:13.963Z,24.00
2022-07-25T00:42:40.930Z,23.90
2022-07-25T00:45:08.377Z,23.90
2022-07-25T00:47:35.414Z,23.80
2022-07-25T00:50:02.539Z,23.70
2022-07-25T00:52:29.650Z,23.80
2022-07-25T00:54:57.193Z,23.80
2022-07-25T00:57:24.182Z,23.70
2022-07-25T00:59:51.363Z,23.60
2022-07-25T01:02:18.391Z,23.80
2022-07-25T01:04:45.506Z,23.70
2022-07-25T01:07:12.692Z,23.70
2022-07-25T01:09:39.792Z,23.60
2022-07-25T01:12:06.977Z,23.60
2022-07-25T01:14:33.939Z,23.50
2022-07-25T01:17:01.263Z,23.60
2022-07-25T01:19:28.305Z,23.60
2022-07-25T01:21:56.346Z,23.60
2022-07-25T01:24:23.439Z,23.50
2022-07-25T01:26:50.381Z,23.50
2022-07-25T01:29:17.324Z,23.50
2022-07-25T01:31:44.457Z,23.40
2022-07-25T01:34:11.374Z,23.40
2022-07-25T07:14:14.041Z,23.30
2022-07-25T07:16:42.453Z,25.00
2022-07-25T07:19:11.212Z,25.00
2022-07-25T07:21:38.582Z,25.10
2022-07-25T07:24:23.199Z,25.20
2022-07-25T07:26:50.909Z,25.30
2022-07-25T07:29:17.817Z,25.50
2022-07-25T07:31:44.843Z,25.60
2022-07-25T07:34:11.902Z,25.80
2022-07-25T07:36:43.324Z,25.90
2022-07-25T07:39:10.230Z,26.00
2022-07-25T07:41:37.255Z,26.10
2022-07-25T07:44:05.507Z,26.20
2022-07-25T07:46:32.525Z,26.40
2022-07-25T07:48:59.762Z,26.40
2022-07-25T07:51:26.775Z,26.50
2022-07-25T07:54:12.563Z,26.40
2022-07-25T07:56:39.581Z,26.40
2022-07-25T07:59:06.687Z,26.40
2022-07-25T08:01:34.791Z,26.40
2022-07-25T08:04:01.842Z,26.50
2022-07-25T08:06:29.092Z,26.60
2022-07-25T08:08:56.069Z,26.70
2022-07-25T08:11:23.008Z,26.50
2022-07-25T08:13:49.959Z,26.40
2022-07-25T08:16:16.968Z,26.40
2022-07-25T08:18:43.971Z,26.50
2022-07-25T08:21:11.763Z,26.50
2022-07-25T08:23:39.149Z,26.40
2022-07-25T08:26:06.838Z,26.40
2022-07-25T08:28:33.836Z,26.50
2022-07-25T08:31:00.890Z,26.30
2022-07-25T08:33:28.432Z,26.30
2022-07-25T08:35:58.935Z,26.30
2022-07-25T08:38:28.138Z,26.20
2022-07-25T08:40:56.442Z,26.10
2022-07-25T08:43:23.983Z,26.10
2022-07-25T08:45:54.026Z,26.00
2022-07-25T08:48:24.383Z,26.10
2022-07-25T08:50:52.443Z,26.20
2022-07-25T08:53:36.280Z,26.10
2022-07-25T08:56:15.982Z,25.80
2022-07-25T08:58:44.694Z,25.60
2022-07-25T09:01:13.020Z,25.80
2022-07-25T09:03:41.551Z,26.00
2022-07-25T09:06:20.675Z,25.90
2022-07-25T09:08:58.724Z,26.00
2022-07-25T09:11:31.311Z,26.10
2022-07-25T09:14:00.298Z,26.50
2022-07-25T09:16:35.828Z,26.40
2022-07-25T09:19:14.054Z,26.30
2022-07-25T09:21:42.462Z,26.30
2022-07-25T09:24:13.452Z,26.30
2022-07-25T09:26:51.949Z,26.10
2022-07-25T09:29:24.807Z,26.30
2022-07-25T09:31:53.295Z,26.50
2022-07-25T09:34:38.240Z,26.50
2022-07-25T09:37:12.347Z,26.70
2022-07-25T09:39:47.006Z,26.70
2022-07-25T09:42:17.189Z,26.50
2022-07-25T09:44:45.156Z,26.40
2022-07-25T09:47:13.901Z,26.60
2022-07-25T09:49:42.722Z,26.70
2022-07-25T09:52:11.594Z,26.20
2022-07-25T09:54:40.082Z,26.30
2022-07-25T09:57:07.177Z,26.30
2022-07-25T09:59:34.991Z,26.30
2022-07-25T10:02:29.725Z,26.30
2022-07-25T10:04:56.701Z,26.30
2022-07-25T10:07:28.230Z,26.20
2022-07-25T10:09:59.471Z,26.10
2022-07-25T10:12:26.410Z,25.90
2022-07-25T10:15:12.328Z,26.00
2022-07-25T10:17:41.637Z,25.90
2022-07-25T10:20:10.352Z,26.20
2022-07-25T10:22:58.466Z,26.10
2022-07-25T10:25:25.843Z,26.20
2022-07-25T10:28:01.075Z,26.50
2022-07-25T10:30:36.630Z,26.70
2022-07-25T10:33:11.154Z,26.60
2022-07-25T10:35:38.203Z,26.40
2022-07-25T10:38:06.528Z,26.80
2022-07-25T10:40:44.828Z,26.60
2022-07-25T10:43:14.226Z,27.00
2022-07-25T10:45:45.691Z,27.10
2022-07-25T10:48:41.979Z,27.30
2022-07-25T10:51:13.918Z,27.10
2022-07-25T10:53:46.574Z,27.20
2022-07-25T10:56:17.688Z,27.20
2022-07-25T10:58:51.889Z,27.20
2022-07-25T11:01:30.511Z,27.10
2022-07-25T11:04:00.577Z,27.30
2022-07-25T11:06:38.802Z,27.60
2022-07-25T11:09:19.257Z,27.90
2022-07-25T11:11:50.384Z,28.00
2022-07-25T11:14:23.000Z,27.90
2022-07-25T11:16:53.502Z,27.70
2022-07-25T11:19:23.561Z,27.50
2022-07-25T11:22:01.516Z,27.10
2022-07-25T11:24:43.113Z,27.60
2022-07-25T11:27:12.956Z,28.20
2022-07-25T11:29:40.966Z,28.60
2022-07-25T11:32:12.665Z,28.80
2022-07-25T11:34:47.430Z,28.70
2022-07-25T11:37:15.933Z,28.90
2022-07-25T11:39:45.683Z,29.30
2022-07-25T11:42:16.243Z,29.30
2022-07-25T11:44:47.839Z,28.70
2022-07-25T11:47:31.485Z,28.60
2022-07-25T11:50:01.362Z,28.30
2022-07-25T11:52:37.891Z,28.10
2022-07-25T11:55:10.414Z,27.90
2022-07-25T11:58:00.205Z,27.60
2022-07-25T12:00:27.762Z,27.60
2022-07-25T12:02:55.092Z,27.40
2022-07-25T12:05:31.473Z,27.30
2022-07-25T12:08:00.927Z,27.10
2022-07-25T12:10:35.785Z,26.90
2022-07-25T12:13:04.435Z,27.10
2022-07-25T12:15:35.623Z,27.10
2022-07-25T12:18:03.259Z,27.00
2022-07-25T12:20:35.623Z,27.10
2022-07-25T12:23:04.836Z,27.00
2022-07-25T12:25:36.397Z,27.20
2022-07-25T12:28:03.890Z,27.30
2022-07-25T12:30:32.015Z,27.50
2022-07-25T12:33:00.169Z,27.30
2022-07-25T12:35:28.011Z,27.70
2022-07-25T12:37:55.022Z,27.90
2022-07-25T12:40:22.523Z,27.70
2022-07-25T12:42:50.470Z,27.70
2022-07-25T12:45:18.030Z,27.70
2022-07-25T12:47:46.242Z,27.70
2022-07-25T12:50:13.853Z,27.50
2022-07-25T12:52:41.714Z,27.50
2022-07-25T12:55:11.283Z,27.50
2022-07-25T12:57:39.211Z,27.90
2022-07-25T13:00:10.048Z,28.30
2022-07-25T13:02:38.002Z,28.80
2022-07-25T13:05:05.896Z,28.60
2022-07-25T13:07:33.547Z,28.20
2022-07-25T13:10:00.972Z,28.20
2022-07-25T13:12:27.977Z,28.30
2022-07-25T13:14:54.916Z,28.10
2022-07-25T13:17:26.922Z,27.60
2022-07-25T13:19:55.226Z,27.80
2022-07-25T13:22:22.145Z,27.70
2022-07-25T13:24:49.079Z,28.00
2022-07-25T13:27:18.963Z,27.90
2022-07-25T13:29:46.135Z,27.90
2022-07-25T13:32:13.777Z,28.10
2022-07-25T13:34:40.819Z,28.00
2022-07-25T13:37:07.887Z,28.00
2022-07-25T13:39:35.930Z,28.10
2022-07-25T13:42:03.609Z,27.70
2022-07-25T13:44:30.570Z,27.90
2022-07-25T13:46:58.793Z,28.00
2022-07-25T13:49:26.125Z,27.90
2022-07-25T13:51:53.248Z,27.80
2022-07-25T13:54:21.232Z,27.60
2022-07-25T13:56:48.325Z,27.40
2022-07-25T13:59:20.947Z,27.20
2022-07-25T14:01:49.086Z,27.20
2022-07-25T14:04:16.366Z,27.00
2022-07-25T14:06:43.712Z,27.10
2022-07-25T14:09:11.089Z,26.90
2022-07-25T14:11:38.264Z,26.80
2022-07-25T14:14:05.302Z,26.70
2022-07-25T14:16:33.866Z,26.50
2022-07-25T14:19:02.207Z,26.60
2022-07-25T14:21:30.575Z,26.50
2022-07-25T14:23:57.571Z,26.30
2022-07-25T14:26:25.898Z,26.50
2022-07-25T14:28:52.842Z,26.60
2022-07-25T14:31:19.826Z,26.50
2022-07-25T14:33:47.072Z,26.40
2022-07-25T14:36:14.024Z,26.30
2022-07-25T14:38:41.077Z,26.10
2022-07-25T14:41:12.886Z,26.10
2022-07-25T14:43:40.996Z,26.30
2022-07-25T14:46:09.091Z,26.40
2022-07-25T14:48:37.604Z,26.30
2022-07-25T14:51:05.919Z,26.20
2022-07-25T14:53:34.370Z,25.80
2022-07-25T14:56:04.266Z,25.70
2022-07-25T14:58:31.953Z,25.80
2022-07-25T15:00:59.113Z,25.80
2022-07-25T15:03:26.213Z,25.80
2022-07-25T15:05:53.264Z,25.80
2022-07-25T15:08:20.248Z,25.70
2022-07-25T15:10:47.367Z,25.50
2022-07-25T15:13:30.494Z,25.30
2022-07-25T15:15:59.166Z,25.10
2022-07-25T15:18:26.222Z,25.10
2022-07-25T15:20:53.455Z,25.20
2022-07-25T15:23:21.275Z,25.30
2022-07-25T15:26:04.777Z,25.20
2022-07-25T15:28:37.654Z,25.20
